Time;durP1;ratioP1;P1;durP2;ratioP2;P2;SDS_P1;SDS_P2;PMS_P1;PMS_P2;Temp;Humidity;BMP_temperature;BMP_pressure;BME280_temperature;BME280_humidity;BME280_pressure;Samples;Min_cycle;Max_cycle;Signal;HPM_P1;HPM_P2
2023/04/03 00:01:33;;;;;;;1.30;0.45;;;;;;;;;;5065927;28;20554;-61
2023/04/03 00:03:59;;;;;;;5.60;0.55;;;;;;;;;;5065879;28;20040;-58
2023/04/03 00:06:26;;;;;;;1.25;0.70;;;;;;;;;;5065888;28;20064;-56
2023/04/03 00:08:52;;;;;;;1.55;0.60;;;;;;;;;;5061263;28;20041;-56
2023/04/03 00:11:18;;;;;;;2.28;0.90;;;;;;;;;;5057322;28;20052;-57
2023/04/03 00:13:44;;;;;;;1.13;0.57;;;;;;;;;;5068281;28;20051;-57
2023/04/03 00:16:11;;;;;;;2.03;0.70;;;;;;;;;;5064176;28;20496;-55
2023/04/03 00:18:38;;;;;;;2.33;0.95;;;;;;;;;;5063836;28;20109;-59
2023/04/03 00:21:05;;;;;;;1.13;0.60;;;;;;;;;;5062536;28;20393;-58
2023/04/03 00:23:31;;;;;;;1.15;0.63;;;;;;;;;;5066745;28;20064;-58
2023/04/03 00:25:57;;;;;;;2.33;0.70;;;;;;;;;;5055073;28;20139;-58
2023/04/03 00:28:23;;;;;;;1.00;0.45;;;;;;;;;;5057352;28;20115;-58
2023/04/03 00:30:50;;;;;;;1.60;0.57;;;;;;;;;;5063711;28;20052;-56
2023/04/03 00:33:16;;;;;;;2.00;0.73;;;;;;;;;;5060050;28;20045;-57
2023/04/03 00:35:43;;;;;;;2.20;0.60;;;;;;;;;;5059809;28;20055;-58
2023/04/03 00:38:09;;;;;;;3.47;0.98;;;;;;;;;;5067904;28;20048;-57
2023/04/03 00:40:38;;;;;;;2.08;0.73;;;;;;;;;;5047908;28;20040;-59
2023/04/03 00:43:17;;;;;;;1.95;0.57;;;;;;;;;;5063738;28;20072;-55
2023/04/03 00:45:46;;;;;;;2.47;0.70;;;;;;;;;;5073398;28;20044;-55
2023/04/03 00:48:18;;;;;;;7.97;0.65;;;;;;;;;;5064302;28;20064;-56
2023/04/03 00:50:45;;;;;;;1.83;0.60;;;;;;;;;;5064071;28;20052;-58
2023/04/03 00:53:19;;;;;;;1.95;0.60;;;;;;;;;;5070267;28;20057;-55
2023/04/03 00:55:47;;;;;;;1.48;0.57;;;;;;;;;;5069303;28;20435;-57
2023/04/03 00:58:16;;;;;;;1.45;0.60;;;;;;;;;;5068489;28;20072;-58
2023/04/03 01:00:46;;;;;;;3.80;1.00;;;;;;;;;;5066458;28;20064;-55
2023/04/03 01:03:52;;;;;;;4.15;0.88;;;;;;;;;;5064620;28;20492;-54
2023/04/03 01:06:52;;;;;;;7.03;0.70;;;;;;;;;;5063486;28;20057;-55
2023/04/03 01:09:19;;;;;;;2.50;0.77;;;;;;;;;;5066579;28;20515;-57
2023/04/03 01:11:45;;;;;;;1.20;0.47;;;;;;;;;;5065760;28;20048;-56
2023/04/03 01:14:11;;;;;;;1.75;0.50;;;;;;;;;;5066345;28;20049;-56
2023/04/03 01:16:36;;;;;;;4.65;0.70;;;;;;;;;;5066096;28;20048;-54
2023/04/03 01:19:06;;;;;;;2.38;0.60;;;;;;;;;;5062881;28;20053;-57
2023/04/03 01:21:46;;;;;;;2.40;0.70;;;;;;;;;;5068148;28;20076;-56
2023/04/03 01:24:31;;;;;;;0.85;0.40;;;;;;;;;;5063854;28;20049;-56
2023/04/03 01:26:57;;;;;;;;;;;;;;;;;;5066381;28;20063;-57
2023/04/03 01:29:23;;;;;;;2.17;0.60;;;;;;;;;;5068351;28;19920;-57
2023/04/03 01:31:52;;;;;;;2.30;0.60;;;;;;;;;;5062462;28;20052;-57
2023/04/03 01:34:19;;;;;;;2.60;0.55;;;;;;;;;;5061582;28;20048;-56
2023/04/03 01:36:45;;;;;;;1.83;0.50;;;;;;;;;;5064432;28;20036;-56
2023/04/03 01:39:12;;;;;;;1.95;0.60;;;;;;;;;;5069223;28;20102;-56
2023/04/03 01:41:38;;;;;;;2.58;0.80;;;;;;;;;;5064697;28;20072;-57
2023/04/03 01:44:04;;;;;;;1.90;0.70;;;;;;;;;;5067408;28;20139;-59
2023/04/03 01:46:30;;;;;;;1.77;0.52;;;;;;;;;;5062148;28;20134;-56
2023/04/03 01:48:56;;;;;;;1.95;0.40;;;;;;;;;;5060978;28;20056;-55
2023/04/03 01:51:22;;;;;;;4.63;0.70;;;;;;;;;;5065495;28;20098;-55
2023/04/03 01:53:48;;;;;;;3.17;0.40;;;;;;;;;;5071146;28;20072;-55
2023/04/03 01:56:14;;;;;;;2.28;0.60;;;;;;;;;;5068618;28;20055;-55
2023/04/03 01:58:40;;;;;;;0.95;0.40;;;;;;;;;;5061888;28;20036;-58
2023/04/03 02:01:06;;;;;;;2.13;0.65;;;;;;;;;;5062767;28;20412;-56
2023/04/03 02:03:32;;;;;;;1.20;0.40;;;;;;;;;;5063243;28;20489;-57
2023/04/03 02:05:59;;;;;;;4.63;0.60;;;;;;;;;;5062366;28;20052;-57
2023/04/03 02:08:25;;;;;;;1.70;0.32;;;;;;;;;;5064735;28;20076;-56
2023/04/03 02:10:51;;;;;;;2.25;0.40;;;;;;;;;;5069652;28;20048;-58
2023/04/03 02:13:18;;;;;;;3.10;0.60;;;;;;;;;;5066388;28;20062;-57
2023/04/03 02:15:45;;;;;;;3.30;0.50;;;;;;;;;;5068075;28;20369;-54
2023/04/03 02:18:11;;;;;;;1.55;0.75;;;;;;;;;;5062286;28;20056;-55
2023/04/03 02:20:37;;;;;;;2.15;0.60;;;;;;;;;;5065683;28;20029;-55
2023/04/03 02:23:05;;;;;;;2.67;0.40;;;;;;;;;;5068854;28;20049;-57
2023/04/03 02:25:32;;;;;;;3.88;0.50;;;;;;;;;;5066806;28;20051;-56
2023/04/03 02:27:58;;;;;;;2.13;0.70;;;;;;;;;;5064217;28;20063;-58
2023/04/03 02:30:24;;;;;;;0.55;0.20;;;;;;;;;;5068661;28;20107;-56
2023/04/03 02:32:50;;;;;;;2.50;0.50;;;;;;;;;;5065948;28;20056;-54
2023/04/03 02:35:16;;;;;;;2.00;0.40;;;;;;;;;;5067594;28;20045;-56
2023/04/03 02:37:42;;;;;;;3.10;0.52;;;;;;;;;;5062034;28;20416;-56
2023/04/03 02:40:08;;;;;;;3.30;0.47;;;;;;;;;;5065385;28;20060;-55
2023/04/03 02:42:34;;;;;;;2.45;0.50;;;;;;;;;;5069520;28;20056;-58
2023/04/03 02:45:00;;;;;;;3.17;0.57;;;;;;;;;;5066657;28;20061;-55
2023/04/03 02:47:27;;;;;;;7.95;0.50;;;;;;;;;;5064305;28;20048;-57
2023/04/03 02:49:53;;;;;;;1.52;0.35;;;;;;;;;;5062896;28;20040;-59
2023/04/03 02:52:20;;;;;;;2.00;0.63;;;;;;;;;;5065695;28;20064;-56
2023/04/03 02:54:46;;;;;;;1.45;0.40;;;;;;;;;;5064602;28;20063;-58
2023/04/03 02:57:11;;;;;;;2.20;0.63;;;;;;;;;;5061899;28;20128;-58
2023/04/03 02:59:41;;;;;;;3.03;0.65;;;;;;;;;;5065498;28;20040;-57
2023/04/03 03:02:10;;;;;;;2.30;0.43;;;;;;;;;;5066643;28;20052;-52
2023/04/03 03:04:37;;;;;;;2.15;0.47;;;;;;;;;;5061905;28;20073;-58
2023/04/03 03:07:03;;;;;;;1.35;0.30;;;;;;;;;;5062459;28;20109;-59
2023/04/03 03:09:29;;;;;;;2.45;0.40;;;;;;;;;;5066805;28;20044;-55
2023/04/03 03:11:56;;;;;;;1.58;0.50;;;;;;;;;;5061454;28;20483;-57
2023/04/03 03:14:23;;;;;;;2.28;0.60;;;;;;;;;;5067211;28;20056;-58
2023/04/03 03:16:49;;;;;;;1.33;0.60;;;;;;;;;;5058858;28;20481;-62
2023/04/03 03:19:15;;;;;;;1.35;0.40;;;;;;;;;;5069511;28;20060;-54
2023/04/03 03:21:41;;;;;;;2.05;0.50;;;;;;;;;;5065244;28;20548;-55
2023/04/03 03:24:07;;;;;;;1.55;0.55;;;;;;;;;;5065851;28;20045;-56
2023/04/03 03:26:33;;;;;;;0.63;0.45;;;;;;;;;;5064997;28;20126;-57
2023/04/03 03:28:59;;;;;;;1.73;0.50;;;;;;;;;;5065168;28;20049;-56
2023/04/03 03:31:25;;;;;;;4.00;0.35;;;;;;;;;;5067772;28;20359;-56
2023/04/03 03:33:51;;;;;;;2.35;0.75;;;;;;;;;;5066927;28;20101;-54
2023/04/03 03:36:17;;;;;;;1.73;0.70;;;;;;;;;;5063563;28;20049;-57
2023/04/03 03:38:43;;;;;;;2.25;0.60;;;;;;;;;;5061206;28;20117;-56
2023/04/03 03:41:09;;;;;;;5.30;0.60;;;;;;;;;;5063629;28;20488;-55
2023/04/03 03:43:35;;;;;;;2.28;0.50;;;;;;;;;;5065634;28;20086;-52
2023/04/03 03:46:01;;;;;;;2.92;0.60;;;;;;;;;;5068187;28;20040;-55
2023/04/03 03:48:27;;;;;;;0.93;0.40;;;;;;;;;;5058942;28;20056;-55
2023/04/03 03:50:53;;;;;;;1.35;0.50;;;;;;;;;;5061808;28;20446;-55
2023/04/03 03:53:19;;;;;;;2.60;0.60;;;;;;;;;;5061665;28;20408;-57
2023/04/03 03:55:45;;;;;;;2.25;0.70;;;;;;;;;;5060212;28;20044;-57
2023/04/03 03:58:11;;;;;;;4.57;0.70;;;;;;;;;;5064073;28;20401;-58
2023/04/03 04:00:37;;;;;;;2.35;0.80;;;;;;;;;;5064760;28;20139;-57
2023/04/03 04:03:03;;;;;;;1.63;0.60;;;;;;;;;;5063196;28;20366;-58
2023/04/03 04:05:30;;;;;;;1.17;0.55;;;;;;;;;;5060714;28;20087;-54
2023/04/03 04:07:56;;;;;;;1.27;0.63;;;;;;;;;;5061794;28;20126;-55
2023/04/03 04:10:23;;;;;;;1.98;0.80;;;;;;;;;;5062989;28;20981;-56
2023/04/03 04:12:51;;;;;;;2.60;0.80;;;;;;;;;;5059727;28;20472;-55
2023/04/03 04:15:17;;;;;;;3.90;0.90;;;;;;;;;;5057475;28;20132;-57
2023/04/03 04:17:43;;;;;;;2.70;0.75;;;;;;;;;;5071345;28;20408;-58
2023/04/03 04:20:09;;;;;;;2.67;0.80;;;;;;;;;;5063294;28;20060;-56
2023/04/03 04:22:35;;;;;;;3.50;0.95;;;;;;;;;;5068889;28;20077;-56
2023/04/03 04:25:01;;;;;;;3.70;1.00;;;;;;;;;;5068851;28;20048;-55
2023/04/03 04:27:27;;;;;;;1.77;0.73;;;;;;;;;;5049803;28;20048;-57
2023/04/03 04:29:53;;;;;;;3.33;1.08;;;;;;;;;;5069227;28;20502;-56
2023/04/03 04:32:19;;;;;;;3.22;0.90;;;;;;;;;;5066239;28;20411;-55
2023/04/03 04:34:45;;;;;;;3.63;0.98;;;;;;;;;;5068395;28;20049;-61
2023/04/03 04:37:11;;;;;;;3.78;0.90;;;;;;;;;;5070342;28;20608;-57
2023/04/03 04:39:37;;;;;;;2.85;0.90;;;;;;;;;;5068530;28;20768;-58
2023/04/03 04:42:03;;;;;;;1.52;0.82;;;;;;;;;;5071246;28;20127;-58
2023/04/03 04:44:29;;;;;;;2.05;0.90;;;;;;;;;;5065593;28;20148;-61
2023/04/03 04:46:55;;;;;;;3.53;1.10;;;;;;;;;;5070216;28;20040;-54
2023/04/03 04:49:21;;;;;;;3.65;1.05;;;;;;;;;;5070083;28;20433;-54
2023/04/03 04:51:47;;;;;;;2.15;0.75;;;;;;;;;;5068007;28;20056;-58
2023/04/03 04:54:13;;;;;;;1.48;0.90;;;;;;;;;;5067353;28;20052;-54
2023/04/03 04:56:39;;;;;;;5.78;1.10;;;;;;;;;;5069668;28;20552;-59
2023/04/03 04:59:05;;;;;;;2.67;0.90;;;;;;;;;;5065606;28;20135;-57
2023/04/03 05:01:31;;;;;;;2.88;1.13;;;;;;;;;;5072975;28;20048;-55
2023/04/03 05:03:57;;;;;;;3.58;1.00;;;;;;;;;;5065614;28;20102;-54
2023/04/03 05:06:23;;;;;;;6.00;1.48;;;;;;;;;;5063733;28;20094;-55
2023/04/03 05:08:49;;;;;;;4.47;1.40;;;;;;;;;;5062554;28;20048;-54
2023/04/03 05:11:15;;;;;;;3.15;1.40;;;;;;;;;;5066441;28;20508;-60
2023/04/03 05:13:41;;;;;;;9.10;1.75;;;;;;;;;;5060132;28;20428;-58
2023/04/03 05:16:07;;;;;;;6.60;1.70;;;;;;;;;;5069702;28;20048;-56
2023/04/03 05:18:33;;;;;;;6.68;1.70;;;;;;;;;;5064558;28;20416;-55
2023/04/03 05:20:59;;;;;;;7.25;2.20;;;;;;;;;;5060635;28;20055;-57
2023/04/03 05:23:25;;;;;;;8.80;3.33;;;;;;;;;;5064950;28;20032;-59
2023/04/03 05:25:51;;;;;;;9.95;1.63;;;;;;;;;;5061303;28;20055;-57
2023/04/03 05:28:17;;;;;;;6.78;1.38;;;;;;;;;;5050211;28;20411;-58
2023/04/03 05:30:43;;;;;;;7.03;1.65;;;;;;;;;;5064483;28;20119;-58
2023/04/03 05:33:08;;;;;;;7.45;2.25;;;;;;;;;;5067433;28;20339;-58
2023/04/03 05:35:38;;;;;;;6.85;1.60;;;;;;;;;;5063534;28;20487;-58
2023/04/03 05:38:05;;;;;;;4.72;1.67;;;;;;;;;;5062879;28;20041;-56
2023/04/03 05:40:31;;;;;;;5.20;1.42;;;;;;;;;;5063482;28;20049;-58
2023/04/03 05:42:57;;;;;;;5.72;1.50;;;;;;;;;;5067691;28;20045;-55
2023/04/03 05:45:23;;;;;;;3.92;1.40;;;;;;;;;;5059540;28;20055;-56
2023/04/03 05:47:49;;;;;;;5.25;1.70;;;;;;;;;;5052383;28;20045;-60
2023/04/03 05:50:15;;;;;;;4.72;1.90;;;;;;;;;;5063135;28;20044;-58
2023/04/03 05:52:45;;;;;;;6.25;1.90;;;;;;;;;;5058265;28;20385;-55
2023/04/03 05:55:11;;;;;;;4.88;1.98;;;;;;;;;;5071561;28;20051;-58
2023/04/03 05:57:37;;;;;;;4.53;2.13;;;;;;;;;;5068382;28;20040;-54
2023/04/03 06:00:06;;;;;;;10.30;2.42;;;;;;;;;;5061180;28;20044;-55
2023/04/03 06:02:32;;;;;;;10.57;2.50;;;;;;;;;;5046697;28;20052;-59
2023/04/03 06:04:58;;;;;;;9.30;2.17;;;;;;;;;;5051521;28;20116;-57
2023/04/03 06:07:28;;;;;;;8.40;2.42;;;;;;;;;;5062689;28;20140;-55
2023/04/03 06:09:55;;;;;;;20.30;3.03;;;;;;;;;;5066203;28;20064;-60
2023/04/03 06:12:21;;;;;;;13.20;2.65;;;;;;;;;;5061416;28;20040;-58
2023/04/03 06:14:48;;;;;;;15.05;2.50;;;;;;;;;;5052781;28;20106;-56
2023/04/03 06:17:15;;;;;;;22.05;3.38;;;;;;;;;;5043380;28;20496;-53
2023/04/03 06:19:41;;;;;;;17.67;3.17;;;;;;;;;;5062090;28;20742;-59
2023/04/03 06:22:07;;;;;;;14.20;3.00;;;;;;;;;;5048765;28;20048;-57
2023/04/03 06:24:33;;;;;;;12.98;3.05;;;;;;;;;;5067346;28;20048;-61
2023/04/03 06:26:59;;;;;;;12.85;2.40;;;;;;;;;;5065541;28;20052;-53
2023/04/03 06:29:25;;;;;;;17.58;2.83;;;;;;;;;;5067448;28;21093;-55
2023/04/03 06:31:52;;;;;;;19.25;3.33;;;;;;;;;;5048736;28;20139;-55
2023/04/03 06:34:18;;;;;;;15.45;3.72;;;;;;;;;;5063748;28;20033;-58
2023/04/03 06:36:44;;;;;;;11.25;2.55;;;;;;;;;;5050824;28;20478;-55
2023/04/03 06:39:15;;;;;;;15.73;2.60;;;;;;;;;;5066702;28;20048;-57
2023/04/03 06:41:42;;;;;;;9.77;2.90;;;;;;;;;;5044762;28;20154;-56
2023/04/03 06:44:10;;;;;;;17.00;3.15;;;;;;;;;;5063759;28;20055;-55
2023/04/03 06:46:38;;;;;;;10.55;3.30;;;;;;;;;;5060392;28;20040;-58
2023/04/03 06:49:07;;;;;;;15.60;3.38;;;;;;;;;;5057131;28;20097;-60
2023/04/03 06:51:33;;;;;;;15.10;3.60;;;;;;;;;;5062703;28;20053;-57
2023/04/03 06:54:00;;;;;;;12.95;2.78;;;;;;;;;;5041774;28;20045;-62
2023/04/03 06:56:26;;;;;;;13.30;3.40;;;;;;;;;;5064600;28;20455;-64
2023/04/03 06:58:54;;;;;;;15.07;3.22;;;;;;;;;;5066108;28;20105;-61
2023/04/03 07:01:21;;;;;;;16.70;2.50;;;;;;;;;;5067348;28;20059;-59
2023/04/03 07:04:27;;;;;;;7.70;2.08;;;;;;;;;;5058867;28;20052;-60
2023/04/03 07:08:07;;;;;;;15.27;2.22;;;;;;;;;;5064814;28;20048;-60
2023/04/03 07:11:47;;;;;;;19.33;2.20;;;;;;;;;;5063777;28;20076;-61
2023/04/03 07:15:28;;;;;;;13.07;2.38;;;;;;;;;;5060638;28;20112;-60
2023/04/03 07:19:08;;;;;;;18.02;2.38;;;;;;;;;;5061386;28;20047;-59
2023/04/03 07:22:49;;;;;;;10.23;2.17;;;;;;;;;;5064180;28;20048;-61
2023/04/03 07:26:29;;;;;;;7.15;1.80;;;;;;;;;;5058706;28;20045;-59
2023/04/03 07:30:09;;;;;;;15.68;1.90;;;;;;;;;;5057816;28;20668;-59
2023/04/03 07:33:49;;;;;;;8.13;1.73;;;;;;;;;;5062898;28;20074;-64
2023/04/03 07:37:30;;;;;;;11.18;2.10;;;;;;;;;;5066240;28;20052;-59
2023/04/03 07:41:10;;;;;;;7.97;1.73;;;;;;;;;;5065799;28;20091;-51
2023/04/03 07:44:51;;;;;;;8.65;1.52;;;;;;;;;;5064745;28;20051;-60
2023/04/03 07:48:31;;;;;;;6.20;1.40;;;;;;;;;;5066659;28;20037;-60
2023/04/03 07:52:12;;;;;;;8.57;1.70;;;;;;;;;;5056883;28;20501;-60
2023/04/03 07:55:13;;;;;;;6.72;1.90;;;;;;;;;;5060194;28;20716;-63
2023/04/03 07:57:40;;;;;;;9.43;1.60;;;;;;;;;;5062512;28;20044;-59
2023/04/03 08:00:07;;;;;;;6.30;1.27;;;;;;;;;;5050454;28;20044;-61
2023/04/03 08:02:33;;;;;;;7.53;1.50;;;;;;;;;;5059515;28;20059;-60
2023/04/03 08:05:38;;;;;;;11.15;1.30;;;;;;;;;;5043899;28;20049;-60
2023/04/03 08:09:19;;;;;;;5.82;1.30;;;;;;;;;;5062832;28;20080;-57
2023/04/03 08:12:59;;;;;;;7.70;1.60;;;;;;;;;;5066280;28;20123;-61
2023/04/03 08:16:39;;;;;;;15.57;1.85;;;;;;;;;;5060761;28;20404;-58
2023/04/03 08:20:20;;;;;;;11.77;1.38;;;;;;;;;;5060616;28;20033;-60
2023/04/03 08:24:00;;;;;;;8.32;1.58;;;;;;;;;;5062239;28;20113;-61
2023/04/03 08:27:40;;;;;;;8.57;1.50;;;;;;;;;;5061520;28;20532;-61
2023/04/03 08:31:24;;;;;;;8.05;1.48;;;;;;;;;;5055068;28;20060;-64
2023/04/03 08:35:04;;;;;;;5.63;1.85;;;;;;;;;;5057968;28;20041;-57
2023/04/03 08:38:44;;;;;;;12.75;2.25;;;;;;;;;;5065251;28;20558;-58
2023/04/03 08:42:27;;;;;;;6.18;1.50;;;;;;;;;;5065426;28;20041;-62
2023/04/03 08:46:11;;;;;;;23.90;2.22;;;;;;;;;;5058741;28;20055;-61
2023/04/03 08:49:51;;;;;;;8.85;1.50;;;;;;;;;;5060284;28;20494;-60
2023/04/03 08:53:34;;;;;;;10.15;1.50;;;;;;;;;;5061281;28;20092;-58
2023/04/03 08:56:35;;;;;;;2.47;0.90;;;;;;;;;;5057633;28;20055;-57
2023/04/03 08:59:10;;;;;;;8.98;1.40;;;;;;;;;;5061590;28;20613;-61
2023/04/03 09:01:39;;;;;;;8.18;1.50;;;;;;;;;;5063867;28;20098;-58
2023/04/03 09:04:16;;;;;;;3.60;1.00;;;;;;;;;;5065804;28;20052;-59
2023/04/03 09:06:48;;;;;;;4.13;0.90;;;;;;;;;;5057811;28;20068;-62
2023/04/03 09:09:40;;;;;;;7.05;1.52;;;;;;;;;;5068774;28;20500;-62
2023/04/03 09:12:15;;;;;;;9.50;1.05;;;;;;;;;;5070952;28;20135;-60
2023/04/03 09:14:53;;;;;;;5.93;1.00;;;;;;;;;;5059037;28;20064;-60
2023/04/03 09:17:24;;;;;;;12.38;1.30;;;;;;;;;;5047545;28;20048;-61
2023/04/03 09:20:27;;;;;;;4.85;1.13;;;;;;;;;;5069393;28;20048;-61
2023/04/03 09:22:54;;;;;;;11.60;1.60;;;;;;;;;;5066901;28;20049;-59
2023/04/03 09:25:25;;;;;;;8.65;1.10;;;;;;;;;;5061623;28;20040;-62
2023/04/03 09:27:52;;;;;;;9.57;1.23;;;;;;;;;;5051587;28;20135;-61
2023/04/03 09:30:23;;;;;;;4.57;1.00;;;;;;;;;;5064532;28;20820;-59
2023/04/03 09:32:55;;;;;;;2.78;1.00;;;;;;;;;;5068550;28;20056;-61
2023/04/03 09:35:34;;;;;;;4.47;1.00;;;;;;;;;;5057803;28;20540;-62
2023/04/03 09:38:22;;;;;;;7.57;1.02;;;;;;;;;;5070109;28;20459;-60
2023/04/03 09:41:16;;;;;;;7.50;1.55;;;;;;;;;;5049740;28;20135;-62
2023/04/03 09:43:53;;;;;;;7.20;1.30;;;;;;;;;;5046840;28;20492;-61
2023/04/03 09:46:29;;;;;;;5.13;1.10;;;;;;;;;;5061255;28;20060;-63
2023/04/03 09:49:00;;;;;;;5.30;1.10;;;;;;;;;;5061768;28;20048;-60
2023/04/03 09:51:28;;;;;;;6.78;1.30;;;;;;;;;;5049799;28;20047;-62
2023/04/03 09:53:55;;;;;;;4.65;1.45;;;;;;;;;;5066243;28;20059;-60
2023/04/03 09:56:23;;;;;;;4.13;0.85;;;;;;;;;;5067661;28;20056;-59
2023/04/03 09:58:50;;;;;;;6.28;1.05;;;;;;;;;;5066403;28;20540;-64
2023/04/03 10:01:42;;;;;;;5.47;1.00;;;;;;;;;;5065377;28;20045;-60
2023/04/03 10:04:12;;;;;;;3.58;1.30;;;;;;;;;;5055932;28;20559;-60
2023/04/03 10:06:51;;;;;;;8.48;1.00;;;;;;;;;;5064087;28;20040;-60
2023/04/03 10:09:30;;;;;;;3.67;1.08;;;;;;;;;;5050180;28;20090;-62
2023/04/03 10:12:01;;;;;;;3.17;1.10;;;;;;;;;;5055853;28;20170;-59
2023/04/03 10:14:28;;;;;;;3.42;1.15;;;;;;;;;;5066301;28;20056;-58
2023/04/03 10:17:06;;;;;;;5.82;1.00;;;;;;;;;;5066693;28;20044;-62
2023/04/03 10:19:35;;;;;;;2.45;1.05;;;;;;;;;;5066974;28;20074;-60
2023/04/03 10:22:39;;;;;;;2.65;0.93;;;;;;;;;;5062804;28;20400;-62
2023/04/03 10:25:43;;;;;;;3.88;1.00;;;;;;;;;;5066055;28;20044;-61
2023/04/03 10:28:35;;;;;;;2.45;0.90;;;;;;;;;;5036041;28;20102;-60
2023/04/03 10:31:24;;;;;;;1.20;0.60;;;;;;;;;;5066279;28;20116;-62
2023/04/03 10:34:06;;;;;;;4.20;1.00;;;;;;;;;;5061709;28;20056;-60
2023/04/03 10:36:47;;;;;;;4.95;0.88;;;;;;;;;;5048389;28;20493;-60
2023/04/03 10:39:41;;;;;;;5.47;1.00;;;;;;;;;;5066321;28;20044;-61
2023/04/03 10:42:47;;;;;;;3.88;1.40;;;;;;;;;;5065918;28;20056;-60
2023/04/03 10:45:29;;;;;;;4.95;0.90;;;;;;;;;;5056495;28;20044;-60
2023/04/03 10:48:11;;;;;;;4.32;0.88;;;;;;;;;;5068525;28;20048;-64
2023/04/03 10:50:43;;;;;;;4.85;1.13;;;;;;;;;;5060127;28;20407;-62
2023/04/03 10:53:38;;;;;;;1.67;0.93;;;;;;;;;;5067329;28;20083;-62
2023/04/03 10:56:20;;;;;;;;;;;;;;;;;;5057693;28;20052;-59
2023/04/03 10:58:54;;;;;;;7.82;2.00;;;;;;;;;;5067487;28;19926;-60
2023/04/03 11:01:24;;;;;;;6.82;1.52;;;;;;;;;;5065205;28;20052;-62
2023/04/03 11:03:55;;;;;;;7.18;1.40;;;;;;;;;;5067308;28;20127;-61
2023/04/03 11:06:23;;;;;;;4.43;1.77;;;;;;;;;;5067553;28;20064;-60
2023/04/03 11:09:03;;;;;;;7.80;1.20;;;;;;;;;;5059973;28;20048;-61
2023/04/03 11:11:35;;;;;;;8.80;1.38;;;;;;;;;;5065492;28;20056;-63
2023/04/03 11:14:05;;;;;;;7.90;1.48;;;;;;;;;;5064112;28;20048;-63
2023/04/03 11:16:41;;;;;;;8.88;1.20;;;;;;;;;;5060858;28;20059;-62
2023/04/03 11:19:21;;;;;;;4.53;1.80;;;;;;;;;;5065669;28;20045;-61
2023/04/03 11:21:57;;;;;;;11.60;1.95;;;;;;;;;;5056676;28;20044;-60
2023/04/03 11:24:29;;;;;;;8.13;2.03;;;;;;;;;;5065314;28;20048;-62
2023/04/03 11:26:58;;;;;;;9.40;2.33;;;;;;;;;;5060703;28;20451;-62
2023/04/03 11:29:33;;;;;;;4.85;1.48;;;;;;;;;;5057035;28;20101;-59
2023/04/03 11:32:48;;;;;;;12.10;1.85;;;;;;;;;;5066944;28;20048;-61
2023/04/03 11:35:15;;;;;;;8.37;1.43;;;;;;;;;;5057391;28;20045;-61
2023/04/03 11:37:46;;;;;;;9.90;2.00;;;;;;;;;;5059810;28;20304;-63
2023/04/03 11:40:24;;;;;;;2.65;1.33;;;;;;;;;;5059681;28;20051;-62
2023/04/03 11:43:16;;;;;;;3.15;1.50;;;;;;;;;;5057893;28;20082;-62
2023/04/03 11:45:50;;;;;;;4.25;1.50;;;;;;;;;;5056444;28;20045;-60
2023/04/03 11:48:31;;;;;;;4.43;1.10;;;;;;;;;;5065492;28;20127;-62
2023/04/03 11:51:03;;;;;;;2.55;1.13;;;;;;;;;;5068097;28;20045;-63
2023/04/03 11:53:34;;;;;;;6.18;1.50;;;;;;;;;;5068027;28;20063;-64
2023/04/03 11:56:23;;;;;;;5.35;1.00;;;;;;;;;;5050515;28;20040;-52
2023/04/03 11:59:05;;;;;;;1.92;1.08;;;;;;;;;;5063546;28;20114;-59
2023/04/03 12:01:51;;;;;;;3.88;1.02;;;;;;;;;;5058271;28;20073;-58
2023/04/03 12:04:20;;;;;;;5.35;0.82;;;;;;;;;;5046737;28;20056;-58
2023/04/03 12:06:46;;;;;;;3.05;0.93;;;;;;;;;;5064781;28;20068;-62
2023/04/03 12:09:27;;;;;;;1.60;0.80;;;;;;;;;;5065756;28;20040;-62
2023/04/03 12:11:59;;;;;;;2.55;1.13;;;;;;;;;;5067688;28;20114;-61
2023/04/03 12:14:27;;;;;;;2.22;1.10;;;;;;;;;;5048006;28;20468;-61
2023/04/03 12:16:57;;;;;;;4.63;1.08;;;;;;;;;;5062673;28;20132;-63
2023/04/03 12:19:44;;;;;;;7.53;1.30;;;;;;;;;;5065891;28;20049;-60
2023/04/03 12:22:13;;;;;;;6.05;1.55;;;;;;;;;;5045199;28;20409;-63
2023/04/03 12:24:48;;;;;;;4.53;2.40;;;;;;;;;;5063488;28;20591;-64
2023/04/03 12:27:20;;;;;;;;;;;;;;;;;;5065008;28;20526;-66
2023/04/03 12:30:03;;;;;;;1.98;0.82;;;;;;;;;;5062538;28;19970;-61
2023/04/03 12:32:48;;;;;;;4.15;0.85;;;;;;;;;;5061601;28;20516;-62
2023/04/03 12:35:54;;;;;;;4.75;1.38;;;;;;;;;;5037897;28;20144;-60
2023/04/03 12:39:53;;;;;;;2.20;1.00;;;;;;;;;;5066450;28;20036;-62
2023/04/03 12:43:34;;;;;;;3.17;0.98;;;;;;;;;;5005090;28;20050;-61
2023/04/03 12:47:17;;;;;;;3.45;1.30;;;;;;;;;;5005482;28;20062;-64
2023/04/03 12:51:00;;;;;;;4.70;1.30;;;;;;;;;;5005189;28;20050;-63
2023/04/03 12:54:53;;;;;;;2.78;1.20;;;;;;;;;;5009820;28;20054;-63
2023/04/03 12:58:36;;;;;;;1.85;0.90;;;;;;;;;;5000804;28;20132;-63
2023/04/03 13:02:19;;;;;;;4.28;0.73;;;;;;;;;;5002416;28;20305;-62
2023/04/03 13:05:59;;;;;;;2.15;1.10;;;;;;;;;;5001569;28;20042;-66
2023/04/03 13:09:49;;;;;;;4.80;1.15;;;;;;;;;;5007223;28;20284;-62
2023/04/03 13:13:35;;;;;;;2.63;1.10;;;;;;;;;;5028798;28;20484;-62
2023/04/03 13:16:55;;;;;;;;;;;;;;;;;;5049455;28;20562;-64
2023/04/03 13:20:45;;;;;;;1.77;0.68;;;;;;;;;;5050799;28;19924;-65
2023/04/03 13:24:25;;;;;;;4.15;1.00;;;;;;;;;;5047474;28;20116;-62
2023/04/03 13:28:06;;;;;;;3.13;0.80;;;;;;;;;;5045782;28;20565;-63
2023/04/03 13:31:46;;;;;;;0.70;0.60;;;;;;;;;;5044410;28;20449;-62
2023/04/03 13:35:26;;;;;;;2.30;0.80;;;;;;;;;;5044535;28;20041;-60
2023/04/03 13:39:07;;;;;;;1.75;0.73;;;;;;;;;;5032207;28;20075;-64
2023/04/03 13:43:03;;;;;;;6.18;1.00;;;;;;;;;;5042212;28;20136;-66
2023/04/03 13:46:10;;;;;;;2.05;1.00;;;;;;;;;;5047588;28;20044;-63
2023/04/03 13:49:57;;;;;;;5.07;0.82;;;;;;;;;;5039331;28;20057;-61
2023/04/03 13:53:40;;;;;;;1.95;0.90;;;;;;;;;;5061861;28;20139;-63
2023/04/03 13:57:21;;;;;;;2.50;0.70;;;;;;;;;;5060999;28;20048;-64
2023/04/03 14:01:07;;;;;;;2.97;0.85;;;;;;;;;;5066355;28;20044;-61
2023/04/03 14:04:36;;;;;;;3.17;0.68;;;;;;;;;;5059648;28;20052;-62
2023/04/03 14:07:42;;;;;;;2.28;1.02;;;;;;;;;;5060567;28;20131;-64
2023/04/03 14:11:23;;;;;;;1.90;1.08;;;;;;;;;;5063506;28;20044;-65
2023/04/03 14:15:03;;;;;;;2.25;1.10;;;;;;;;;;5060435;28;20104;-63
2023/04/03 14:18:43;;;;;;;4.53;1.73;;;;;;;;;;5062705;28;20048;-62
2023/04/03 14:22:26;;;;;;;4.00;1.13;;;;;;;;;;5065775;28;20131;-62
2023/04/03 14:26:07;;;;;;;3.90;1.40;;;;;;;;;;5057871;28;20096;-63
2023/04/03 14:29:47;;;;;;;7.00;1.60;;;;;;;;;;5064397;28;20127;-62
2023/04/03 14:33:34;;;;;;;3.90;1.27;;;;;;;;;;5069579;28;20127;-61
2023/04/03 14:37:11;;;;;;;8.77;1.02;;;;;;;;;;5068250;28;20506;-62
2023/04/03 14:40:54;;;;;;;4.13;1.27;;;;;;;;;;5058851;28;20116;-61
2023/04/03 14:44:35;;;;;;;3.78;1.15;;;;;;;;;;5064956;28;20384;-63
2023/04/03 14:48:15;;;;;;;4.72;1.58;;;;;;;;;;5065424;28;20462;-63
2023/04/03 14:51:56;;;;;;;2.47;1.20;;;;;;;;;;5061405;28;20060;-58
2023/04/03 14:55:36;;;;;;;5.07;1.13;;;;;;;;;;5058922;28;20104;-56
2023/04/03 14:59:19;;;;;;;1.85;0.68;;;;;;;;;;5064057;28;20044;-58
2023/04/03 15:03:09;;;;;;;5.97;2.38;;;;;;;;;;5057613;28;20045;-57
2023/04/03 15:06:52;;;;;;;10.00;4.75;;;;;;;;;;5059425;28;20059;-57
2023/04/03 15:10:39;;;;;;;11.63;4.93;;;;;;;;;;5062187;28;20111;-57
2023/04/03 15:14:19;;;;;;;3.38;1.77;;;;;;;;;;5060986;28;20427;-57
2023/04/03 15:17:59;;;;;;;6.57;2.97;;;;;;;;;;5054307;28;20067;-56
2023/04/03 15:21:40;;;;;;;2.97;1.17;;;;;;;;;;5063323;28;20400;-59
2023/04/03 15:25:20;;;;;;;5.28;1.85;;;;;;;;;;5063428;28;20628;-59
2023/04/03 15:28:49;;;;;;;5.60;1.38;;;;;;;;;;5062043;28;20510;-57
2023/04/03 15:32:30;;;;;;;8.52;1.45;;;;;;;;;;5059072;28;20186;-56
2023/04/03 15:36:10;;;;;;;10.10;1.35;;;;;;;;;;5065083;28;20045;-61
2023/04/03 15:39:51;;;;;;;4.97;1.17;;;;;;;;;;5066184;28;20107;-57
2023/04/03 15:43:33;;;;;;;3.50;1.05;;;;;;;;;;5057706;28;20058;-58
2023/04/03 15:47:11;;;;;;;4.07;0.90;;;;;;;;;;5063178;28;20133;-59
2023/04/03 15:50:52;;;;;;;6.53;1.73;;;;;;;;;;5056035;28;20055;-63
2023/04/03 15:54:32;;;;;;;5.80;1.35;;;;;;;;;;5059971;28;20084;-59
2023/04/03 15:58:13;;;;;;;5.35;1.30;;;;;;;;;;5061862;28;20052;-61
2023/04/03 16:01:53;;;;;;;5.20;1.23;;;;;;;;;;5060728;28;20056;-56
2023/04/03 16:05:33;;;;;;;4.13;1.20;;;;;;;;;;5059236;28;20412;-63
2023/04/03 16:09:14;;;;;;;2.42;0.88;;;;;;;;;;5064360;28;20040;-59
2023/04/03 16:12:54;;;;;;;2.42;1.00;;;;;;;;;;5057004;28;20055;-60
2023/04/03 16:16:34;;;;;;;3.83;1.10;;;;;;;;;;5070071;28;20518;-62
2023/04/03 16:20:15;;;;;;;2.88;1.00;;;;;;;;;;5067267;28;20048;-63
2023/04/03 16:23:55;;;;;;;3.33;1.00;;;;;;;;;;5070638;28;20408;-64
2023/04/03 16:27:35;;;;;;;7.72;1.50;;;;;;;;;;5063565;28;20118;-64
2023/04/03 16:31:15;;;;;;;11.85;1.50;;;;;;;;;;5062917;28;20133;-67
2023/04/03 16:34:56;;;;;;;2.60;0.95;;;;;;;;;;5066254;28;20678;-64
2023/04/03 16:38:36;;;;;;;4.05;1.48;;;;;;;;;;5067044;28;20083;-66
2023/04/03 16:42:17;;;;;;;5.70;1.30;;;;;;;;;;5064592;28;20127;-63
2023/04/03 16:45:57;;;;;;;6.85;1.50;;;;;;;;;;5068537;28;20137;-62
2023/04/03 16:49:38;;;;;;;11.18;1.27;;;;;;;;;;5067302;28;20115;-64
2023/04/03 16:53:18;;;;;;;4.68;1.02;;;;;;;;;;5065078;28;20514;-63
2023/04/03 16:56:59;;;;;;;5.07;1.20;;;;;;;;;;5068543;28;20422;-67
2023/04/03 17:00:39;;;;;;;6.25;1.20;;;;;;;;;;5065452;28;20045;-65